Alliance, Ohio
Current Conditions -  °F | °C
As of 7:51 PM on Friday 21 Nov 2014 (Local Time) from KCAK Reporting Station
Clear Clear  
Wind Chill:   Ceiling: Unl
Heat Index: 18°   Visibility: 10mi
Dew Point:   Wind: 7mph
Humidity: 65%   Direction: 200°SSW
Pressure: 30.44"   Gusts: NA
Location:  40.92°N, 81.1°W
Report Text: KCAK 220051Z 20006KT 10SM CLR M08/M13 A3044 RMK AO2 SLP329 T10781133
Loading
Personal Weather Stations






























Interactive Weather Map New forecast layout! Learn more

10-Day Weather Forecast

Advertisements
Track Severe Weather on mobile